Time,TemperatureF,DewpointF,PressureIn,WindDirection,WindDirectionDegrees,WindSpeedMPH,WindSpeedGustMPH,Humidity,HourlyPrecipIn,Conditions,Clouds,dailyrainin,SoftwareType,DateUTC
2013-02-15 00:12:00,19.8,13.5,30.27,West,270,2.2,-999.0,76,-99.99,,,0.00,Acu-Link.com,2013-02-15 06:12:00,
2013-02-15 00:39:00,19.4,13.1,30.27,SW,225,2.7,-999.0,76,-99.99,,,0.00,Acu-Link.com,2013-02-15 06:39:00,
2013-02-15 01:06:00,18.9,12.6,30.28,West,270,6.8,-999.0,76,-99.99,,,0.00,Acu-Link.com,2013-02-15 07:06:00,
2013-02-15 01:22:00,18.7,12.7,30.29,West,270,4.7,-999.0,77,-99.99,,,0.00,Acu-Link.com,2013-02-15 07:22:00,
2013-02-15 01:37:00,18.1,12.7,30.29,WSW,247,2.7,-999.0,79,-99.99,,,0.00,Acu-Link.com,2013-02-15 07:37:00,
2013-02-15 01:52:00,17.6,12.5,30.30,West,270,2.2,-999.0,80,-99.99,,,0.00,Acu-Link.com,2013-02-15 07:52:00,
2013-02-15 02:08:00,16.7,12.5,30.31,West,270,1.1,-999.0,83,-99.99,,,0.00,Acu-Link.com,2013-02-15 08:08:00,
2013-02-15 02:25:00,16.9,12.6,30.31,West,270,2.7,-999.0,83,-99.99,,,0.00,Acu-Link.com,2013-02-15 08:25:00,
2013-02-15 02:40:00,16.7,12.7,30.30,NE,45,2.2,-999.0,84,-99.99,,,0.00,Acu-Link.com,2013-02-15 08:40:00,
2013-02-15 02:55:00,16.9,12.9,30.30,SSE,157,2.2,-999.0,84,-99.99,,,0.00,Acu-Link.com,2013-02-15 08:55:00,
2013-02-15 03:18:00,16.9,12.9,30.31,South,180,5.3,-999.0,84,-99.99,,,0.00,Acu-Link.com,2013-02-15 09:18:00,
2013-02-15 03:35:00,16.3,12.1,30.31,West,270,4.7,-999.0,83,-99.99,,,0.00,Acu-Link.com,2013-02-15 09:35:00,
2013-02-15 03:52:00,17.1,12.8,30.30,North,0,2.2,-999.0,83,-99.99,,,0.00,Acu-Link.com,2013-02-15 09:52:00,
2013-02-15 04:07:00,16.0,11.8,30.30,WNW,292,2.2,-999.0,83,-99.99,,,0.00,Acu-Link.com,2013-02-15 10:07:00,
2013-02-15 04:22:00,15.8,11.6,30.30,WNW,292,3.2,-999.0,83,-99.99,,,0.00,Acu-Link.com,2013-02-15 10:22:00,
2013-02-15 04:38:00,15.8,11.6,30.32,NNE,22,0.0,-999.0,83,-99.99,,,0.00,Acu-Link.com,2013-02-15 10:38:00,
2013-02-15 04:53:00,14.5,10.3,30.31,West,270,2.7,-999.0,83,-99.99,,,0.00,Acu-Link.com,2013-02-15 10:53:00,
2013-02-15 05:09:00,14.7,10.5,30.32,WNW,292,1.7,-999.0,83,-99.99,,,0.00,Acu-Link.com,2013-02-15 11:09:00,
2013-02-15 05:24:00,14.2,10.3,30.33,South,180,1.1,-999.0,84,-99.99,,,0.00,Acu-Link.com,2013-02-15 11:24:00,
2013-02-15 05:39:00,14.0,10.1,30.32,WSW,247,2.2,-999.0,84,-99.99,,,0.00,Acu-Link.com,2013-02-15 11:39:00,
2013-02-15 05:55:00,14.9,10.7,30.32,SW,225,2.7,-999.0,83,-99.99,,,0.00,Acu-Link.com,2013-02-15 11:55:00,
2013-02-15 06:11:00,16.0,10.9,30.32,West,270,3.7,-999.0,80,-99.99,,,0.00,Acu-Link.com,2013-02-15 12:11:00,
2013-02-15 06:26:00,16.2,11.1,30.30,North,0,3.2,-999.0,80,-99.99,,,0.00,Acu-Link.com,2013-02-15 12:26:00,
2013-02-15 06:42:00,16.2,11.1,30.31,WSW,247,4.7,-999.0,80,-99.99,,,0.00,Acu-Link.com,2013-02-15 12:42:00,
2013-02-15 06:57:00,15.8,10.7,30.32,WSW,247,1.1,-999.0,80,-99.99,,,0.00,Acu-Link.com,2013-02-15 12:57:00,
2013-02-15 07:13:00,14.7,10.2,30.31,West,270,0.0,-999.0,82,-99.99,,,0.00,Acu-Link.com,2013-02-15 13:13:00,
2013-02-15 07:56:00,16.0,12.3,30.32,West,270,2.2,-999.0,85,-99.99,,,0.00,Acu-Link.com,2013-02-15 13:56:00,
2013-02-15 08:11:00,20.3,14.8,30.33,West,270,1.7,-999.0,79,-99.99,,,0.00,Acu-Link.com,2013-02-15 14:11:00,
2013-02-15 08:27:00,22.8,16.1,30.33,WSW,247,4.7,-999.0,75,-99.99,,,0.00,Acu-Link.com,2013-02-15 14:27:00,
2013-02-15 08:42:00,23.7,17.0,30.33,WNW,292,3.2,-999.0,75,-99.99,,,0.00,Acu-Link.com,2013-02-15 14:42:00,
2013-02-15 08:58:00,26.4,18.9,30.33,SW,225,5.8,-999.0,73,-99.99,,,0.00,Acu-Link.com,2013-02-15 14:58:00,
2013-02-15 09:13:00,28.4,19.2,30.34,WNW,292,6.3,-999.0,68,-99.99,,,0.00,Acu-Link.com,2013-02-15 15:13:00,
2013-02-15 09:28:00,29.7,18.7,30.33,WSW,247,4.7,-999.0,63,-99.99,,,0.00,Acu-Link.com,2013-02-15 15:28:00,
2013-02-15 09:44:00,31.1,19.2,30.33,NNW,337,3.2,-999.0,61,-99.99,,,0.00,Acu-Link.com,2013-02-15 15:44:00,
2013-02-15 09:59:00,30.9,19.4,30.33,NNE,22,2.7,-999.0,62,-99.99,,,0.00,Acu-Link.com,2013-02-15 15:59:00,
2013-02-15 10:14:00,30.9,19.1,30.32,NNW,337,3.2,-999.0,61,-99.99,,,0.00,Acu-Link.com,2013-02-15 16:14:00,
2013-02-15 10:29:00,30.6,18.4,30.32,West,270,4.2,-999.0,60,-99.99,,,0.00,Acu-Link.com,2013-02-15 16:29:00,
2013-02-15 10:44:00,31.1,18.9,30.32,West,270,3.2,-999.0,60,-99.99,,,0.00,Acu-Link.com,2013-02-15 16:44:00,
2013-02-15 11:00:00,31.3,18.7,30.32,NNW,337,2.2,-999.0,59,-99.99,,,0.00,Acu-Link.com,2013-02-15 17:00:00,
2013-02-15 11:15:00,31.8,17.9,30.32,North,0,7.3,-999.0,56,-99.99,,,0.00,Acu-Link.com,2013-02-15 17:15:00,
2013-02-15 11:30:00,32.2,17.4,30.32,NNE,22,5.3,-999.0,54,-99.99,,,0.00,Acu-Link.com,2013-02-15 17:30:00,
2013-02-15 11:45:00,33.6,18.3,30.31,WNW,292,2.2,-999.0,53,-99.99,,,0.00,Acu-Link.com,2013-02-15 17:45:00,
2013-02-15 12:01:00,33.4,19.4,30.31,WNW,292,1.7,-999.0,56,-99.99,,,0.00,Acu-Link.com,2013-02-15 18:01:00,
2013-02-15 12:16:00,32.7,17.0,30.30,NNW,337,4.2,-999.0,52,-99.99,,,0.00,Acu-Link.com,2013-02-15 18:16:00,
2013-02-15 12:31:00,33.3,18.5,30.30,North,0,3.2,-999.0,54,-99.99,,,0.00,Acu-Link.com,2013-02-15 18:31:00,
2013-02-15 12:46:00,33.4,19.8,30.29,ESE,112,2.7,-999.0,57,-99.99,,,0.00,Acu-Link.com,2013-02-15 18:46:00,
2013-02-15 13:02:00,34.3,19.8,30.28,SW,225,1.7,-999.0,55,-99.99,,,0.00,Acu-Link.com,2013-02-15 19:02:00,
2013-02-15 13:17:00,36.1,22.8,30.28,North,0,4.7,-999.0,58,-99.99,,,0.00,Acu-Link.com,2013-02-15 19:17:00,
2013-02-15 13:32:00,34.2,21.4,30.27,SW,225,2.7,-999.0,59,-99.99,,,0.00,Acu-Link.com,2013-02-15 19:32:00,
2013-02-15 13:48:00,35.4,21.3,30.27,WSW,247,2.7,-999.0,56,-99.99,,,0.00,Acu-Link.com,2013-02-15 19:48:00,
2013-02-15 14:04:00,35.6,22.3,30.25,West,270,2.7,-999.0,58,-99.99,,,0.00,Acu-Link.com,2013-02-15 20:04:00,
2013-02-15 14:26:00,35.8,22.9,30.24,SW,225,2.7,-999.0,59,-99.99,,,0.00,Acu-Link.com,2013-02-15 20:26:00,
2013-02-15 14:43:00,36.0,22.7,30.24,North,0,1.1,-999.0,58,-99.99,,,0.00,Acu-Link.com,2013-02-15 20:43:00,
2013-02-15 14:58:00,36.9,22.7,30.25,WNW,292,0.0,-999.0,56,-99.99,,,0.00,Acu-Link.com,2013-02-15 20:58:00,
2013-02-15 15:20:00,35.4,23.7,30.24,WNW,292,3.7,-999.0,62,-99.99,,,0.00,Acu-Link.com,2013-02-15 21:20:00,
2013-02-15 17:54:00,28.4,23.9,30.26,East,90,3.7,-999.0,83,-99.99,,,0.00,Acu-Link.com,2013-02-15 23:54:00,
2013-02-15 18:15:00,27.3,22.8,30.26,SSE,157,3.7,-999.0,83,-99.99,,,0.00,Acu-Link.com,2013-02-16 00:15:00,
2013-02-15 18:31:00,27.9,24.0,30.27,NW,315,10.4,-999.0,85,-99.99,,,0.00,Acu-Link.com,2013-02-16 00:31:00,
2013-02-15 18:46:00,27.5,21.9,30.27,West,270,5.3,-999.0,79,-99.99,,,0.00,Acu-Link.com,2013-02-16 00:46:00,
2013-02-15 19:04:00,27.0,20.5,30.28,NNW,337,5.8,-999.0,76,-99.99,,,0.00,Acu-Link.com,2013-02-16 01:04:00,
2013-02-15 19:20:00,26.4,19.9,30.28,SW,225,3.2,-999.0,76,-99.99,,,0.00,Acu-Link.com,2013-02-16 01:20:00,
2013-02-15 19:35:00,26.1,19.9,30.28,East,90,4.2,-999.0,77,-99.99,,,0.00,Acu-Link.com,2013-02-16 01:35:00,
2013-02-15 19:50:00,25.9,20.9,30.28,West,270,2.7,-999.0,81,-99.99,,,0.00,Acu-Link.com,2013-02-16 01:50:00,
2013-02-15 20:06:00,25.7,21.0,30.30,South,180,4.2,-999.0,82,-99.99,,,0.00,Acu-Link.com,2013-02-16 02:06:00,
2013-02-15 20:22:00,24.3,20.2,30.28,East,90,8.3,-999.0,84,-99.99,,,0.00,Acu-Link.com,2013-02-16 02:22:00,
2013-02-15 20:37:00,23.9,20.1,30.30,SSE,157,2.7,-999.0,85,-99.99,,,0.00,Acu-Link.com,2013-02-16 02:37:00,
2013-02-15 20:52:00,23.7,20.1,30.30,WNW,292,3.2,-999.0,86,-99.99,,,0.00,Acu-Link.com,2013-02-16 02:52:00,
2013-02-15 21:07:00,23.9,20.6,30.30,South,180,3.2,-999.0,87,-99.99,,,0.00,Acu-Link.com,2013-02-16 03:07:00,
2013-02-15 21:22:00,24.1,21.1,30.30,SW,225,3.2,-999.0,88,-99.99,,,0.00,Acu-Link.com,2013-02-16 03:22:00,
2013-02-15 21:38:00,24.4,21.1,30.30,NE,45,4.2,-999.0,87,-99.99,,,0.00,Acu-Link.com,2013-02-16 03:38:00,
2013-02-15 21:53:00,24.4,20.6,30.30,South,180,2.2,-999.0,85,-99.99,,,0.00,Acu-Link.com,2013-02-16 03:53:00,
2013-02-15 22:08:00,24.4,19.7,30.31,ESE,112,3.7,-999.0,82,-99.99,,,0.00,Acu-Link.com,2013-02-16 04:08:00,
2013-02-15 22:23:00,24.3,19.0,30.31,NNE,22,5.8,-999.0,80,-99.99,,,0.00,Acu-Link.com,2013-02-16 04:23:00,
2013-02-15 22:38:00,24.1,19.1,30.32,SW,225,2.2,-999.0,81,-99.99,,,0.00,Acu-Link.com,2013-02-16 04:38:00,
2013-02-15 22:54:00,23.7,18.7,30.31,ENE,67,2.2,-999.0,81,-99.99,,,0.00,Acu-Link.com,2013-02-16 04:54:00,
2013-02-15 23:09:00,22.8,17.9,30.31,ENE,67,1.7,-999.0,81,-99.99,,,0.00,Acu-Link.com,2013-02-16 05:09:00,
2013-02-15 23:24:00,21.6,17.0,30.31,North,0,2.7,-999.0,82,-99.99,,,0.00,Acu-Link.com,2013-02-16 05:24:00,
2013-02-15 23:39:00,20.1,15.8,30.30,NNE,22,0.0,-999.0,83,-99.99,,,0.00,Acu-Link.com,2013-02-16 05:39:00,
2013-02-15 23:54:00,18.5,13.9,30.30,NNE,22,0.0,-999.0,82,-99.99,,,0.00,Acu-Link.com,2013-02-16 05:54:00,